Time;durP1;ratioP1;P1;durP2;ratioP2;P2;SDS_P1;SDS_P2;PMS_P1;PMS_P2;Temp;Humidity;BMP_temperature;BMP_pressure;BME280_temperature;BME280_humidity;BME280_pressure;Samples;Min_cycle;Max_cycle;Signal;HPM_P1;HPM_P2
2022/04/11 00:00:07;;;;;;;;;;;22.50;29.90;;;;;;4944233;28;19927;-63
2022/04/11 00:02:34;;;;;;;;;;;22.50;29.90;;;;;;4946277;28;20323;-64
2022/04/11 00:05:01;;;;;;;;;;;22.50;29.90;;;;;;4944019;28;19930;-63
2022/04/11 00:07:28;;;;;;;;;;;22.50;29.90;;;;;;4945839;28;20267;-63
2022/04/11 00:09:55;;;;;;;;;;;22.50;29.90;;;;;;4944637;28;19981;-63
2022/04/11 00:12:22;;;;;;;;;;;22.50;29.90;;;;;;4945195;28;19973;-63
2022/04/11 00:14:49;;;;;;;;;;;22.50;29.90;;;;;;4945615;28;19989;-63
2022/04/11 00:17:16;;;;;;;;;;;22.50;30.00;;;;;;4944802;28;19966;-63
2022/04/11 00:19:44;;;;;;;;;;;22.50;30.00;;;;;;4945458;28;20071;-63
2022/04/11 00:22:10;;;;;;;;;;;22.50;30.00;;;;;;4945149;28;19972;-63
2022/04/11 00:24:37;;;;;;;;;;;22.50;30.00;;;;;;4945376;28;20017;-63
2022/04/11 00:27:05;;;;;;;;;;;22.50;30.00;;;;;;4940525;28;20001;-63
2022/04/11 00:29:33;;;;;;;;;;;22.50;30.00;;;;;;4946046;28;19934;-63
2022/04/11 00:31:59;;;;;;;;;;;22.50;30.00;;;;;;4944886;28;19965;-63
2022/04/11 00:34:26;;;;;;;;;;;22.40;30.00;;;;;;4945749;29;19927;-63
2022/04/11 00:36:53;;;;;;;;;;;22.40;30.00;;;;;;4945307;28;19996;-63
2022/04/11 00:39:20;;;;;;;;;;;22.40;30.00;;;;;;4945530;28;20015;-63
2022/04/11 00:41:47;;;;;;;;;;;22.40;30.00;;;;;;4944024;28;19926;-63
2022/04/11 00:44:14;;;;;;;;;;;22.40;30.00;;;;;;4929215;29;19926;-63
2022/04/11 00:46:41;;;;;;;;;;;22.40;30.10;;;;;;4943795;28;19969;-63
2022/04/11 00:49:08;;;;;;;;;;;22.40;30.10;;;;;;4944110;28;20018;-63
2022/04/11 00:51:35;;;;;;;;;;;22.30;30.60;;;;;;4945760;29;19976;-63
2022/04/11 00:54:03;;;;;;;;;;;22.30;30.10;;;;;;4945226;28;19984;-63
2022/04/11 00:56:30;;;;;;;;;;;22.30;30.10;;;;;;4945014;28;20017;-63
2022/04/11 00:58:58;;;;;;;;;;;22.30;30.10;;;;;;4940540;28;20374;-62
2022/04/11 01:01:25;;;;;;;;;;;22.30;30.10;;;;;;4944057;28;20390;-63
2022/04/11 01:03:53;;;;;;;;;;;22.30;30.10;;;;;;4945726;29;19934;-63
2022/04/11 01:06:20;;;;;;;;;;;22.30;30.10;;;;;;4944233;28;19926;-63
2022/04/11 01:08:47;;;;;;;;;;;22.30;30.10;;;;;;4945085;28;19976;-62
2022/04/11 01:11:13;;;;;;;;;;;22.40;30.10;;;;;;4959758;28;20469;-63
2022/04/11 01:13:42;;;;;;;;;;;22.40;30.10;;;;;;4964541;28;19973;-63
2022/04/11 01:16:09;;;;;;;;;;;22.40;30.10;;;;;;4964607;28;20386;-63
2022/04/11 01:18:36;;;;;;;;;;;22.40;30.10;;;;;;4964633;28;19932;-63
2022/04/11 01:21:06;;;;;;;;;;;22.40;30.00;;;;;;4963521;28;20389;-63
2022/04/11 01:23:33;;;;;;;;;;;22.40;30.10;;;;;;4964255;28;19983;-63
2022/04/11 01:26:00;;;;;;;;;;;22.40;30.10;;;;;;4963468;28;19930;-63
2022/04/11 01:28:27;;;;;;;;;;;22.40;30.10;;;;;;4964392;28;20218;-63
2022/04/11 01:30:55;;;;;;;;;;;22.40;30.10;;;;;;4959020;28;19926;-63
2022/04/11 01:33:24;;;;;;;;;;;22.40;30.10;;;;;;4946058;28;20185;-63
2022/04/11 01:35:51;;;;;;;;;;;22.40;30.10;;;;;;4962879;28;19934;-63
2022/04/11 01:38:18;;;;;;;;;;;22.40;30.10;;;;;;4962961;28;20368;-63
2022/04/11 01:40:53;;;;;;;;;;;22.40;30.10;;;;;;4964685;28;19930;-63
2022/04/11 01:43:21;;;;;;;;;;;22.40;30.20;;;;;;4964211;28;19927;-63
2022/04/11 01:45:48;;;;;;;;;;;22.30;30.10;;;;;;4964406;28;19926;-63
2022/04/11 01:48:15;;;;;;;;;;;22.30;30.10;;;;;;4964100;28;20409;-63
2022/04/11 01:50:42;;;;;;;;;;;22.30;30.20;;;;;;4964670;28;19930;-63
2022/04/11 01:53:10;;;;;;;;;;;22.30;30.20;;;;;;4963605;28;19926;-63
2022/04/11 01:55:37;;;;;;;;;;;22.30;30.20;;;;;;4963563;28;19926;-63
2022/04/11 01:58:05;;;;;;;;;;;22.30;30.20;;;;;;4962686;28;19926;-63
2022/04/11 02:00:33;;;;;;;;;;;22.30;30.30;;;;;;4962279;28;20207;-63
2022/04/11 02:03:00;;;;;;;;;;;22.30;30.30;;;;;;5004475;28;19985;-63
2022/04/11 02:05:28;;;;;;;;;;;22.30;30.30;;;;;;4962975;28;20140;-63
2022/04/11 02:07:56;;;;;;;;;;;22.30;30.30;;;;;;4966313;28;19926;-64
2022/04/11 02:10:23;;;;;;;;;;;22.30;30.30;;;;;;4965562;28;19927;-63
2022/04/11 02:12:51;;;;;;;;;;;22.30;30.30;;;;;;4965962;28;20523;-63
2022/04/11 02:15:18;;;;;;;;;;;22.30;30.90;;;;;;4967730;28;20313;-63
2022/04/11 02:17:50;;;;;;;;;;;22.30;30.30;;;;;;4966392;28;19927;-63
2022/04/11 02:20:17;;;;;;;;;;;22.30;30.30;;;;;;4967202;28;19926;-63
2022/04/11 02:22:48;;;;;;;;;;;22.20;30.30;;;;;;4965946;28;20062;-63
2022/04/11 02:25:16;;;;;;;;;;;22.20;30.30;;;;;;4965377;28;19973;-63
2022/04/11 02:27:44;;;;;;;;;;;22.20;30.40;;;;;;4967313;28;20003;-63
2022/04/11 02:30:11;;;;;;;;;;;22.20;30.40;;;;;;4966059;28;20115;-63
2022/04/11 02:32:38;;;;;;;;;;;22.20;30.50;;;;;;4962613;28;20425;-63
2022/04/11 02:35:06;;;;;;;;;;;22.20;30.50;;;;;;4967215;28;19926;-63
2022/04/11 02:37:33;;;;;;;;;;;22.20;30.50;;;;;;4966577;28;20332;-63
2022/04/11 02:40:01;;;;;;;;;;;22.20;30.50;;;;;;4947540;28;19972;-64
2022/04/11 02:42:28;;;;;;;;;;;22.10;30.50;;;;;;4946521;28;19927;-63
2022/04/11 02:44:55;;;;;;;;;;;22.10;30.50;;;;;;4947418;28;19926;-63
2022/04/11 02:47:22;;;;;;;;;;;22.10;30.50;;;;;;4947093;28;19937;-63
2022/04/11 02:49:49;;;;;;;;;;;22.10;30.50;;;;;;4947287;29;19977;-63
2022/04/11 02:52:16;;;;;;;;;;;22.20;30.50;;;;;;4945379;28;19958;-63
2022/04/11 02:54:43;;;;;;;;;;;22.20;30.50;;;;;;4946286;28;20283;-63
2022/04/11 02:57:10;;;;;;;;;;;22.20;30.40;;;;;;4947503;29;19927;-63
2022/04/11 02:59:37;;;;;;;;;;;22.20;30.40;;;;;;4946872;28;20097;-63
2022/04/11 03:02:04;;;;;;;;;;;22.20;30.40;;;;;;4946896;28;19971;-64
2022/04/11 03:04:31;;;;;;;;;;;22.20;30.40;;;;;;4942284;28;19938;-63
2022/04/11 03:06:58;;;;;;;;;;;22.20;30.40;;;;;;4945858;28;19934;-63
2022/04/11 03:09:25;;;;;;;;;;;22.20;30.40;;;;;;4945764;28;20393;-63
2022/04/11 03:11:52;;;;;;;;;;;22.20;30.40;;;;;;4946021;28;19958;-63
2022/04/11 03:14:19;;;;;;;;;;;22.20;30.40;;;;;;4946856;29;20061;-63
2022/04/11 03:16:46;;;;;;;;;;;22.20;30.40;;;;;;4947402;29;20390;-63
2022/04/11 03:19:13;;;;;;;;;;;22.20;30.40;;;;;;4946342;28;20290;-63
2022/04/11 03:21:40;;;;;;;;;;;22.20;30.40;;;;;;4946497;28;20575;-63
2022/04/11 03:24:07;;;;;;;;;;;22.20;30.40;;;;;;4946811;28;20017;-63
2022/04/11 03:26:35;;;;;;;;;;;22.20;30.40;;;;;;4945329;28;20033;-62
2022/04/11 03:29:02;;;;;;;;;;;22.20;30.40;;;;;;4946025;28;20401;-63
2022/04/11 03:31:29;;;;;;;;;;;22.20;30.40;;;;;;4945978;28;19988;-62
2022/04/11 03:33:56;;;;;;;;;;;22.20;30.40;;;;;;4946089;28;20462;-64
2022/04/11 03:36:24;;;;;;;;;;;22.20;30.40;;;;;;4941230;28;20343;-64
2022/04/11 03:38:51;;;;;;;;;;;22.20;30.40;;;;;;4945033;28;19992;-62
2022/04/11 03:41:18;;;;;;;;;;;22.20;30.40;;;;;;4945180;28;19980;-63
2022/04/11 03:43:45;;;;;;;;;;;22.20;30.50;;;;;;4953295;28;20546;-63
2022/04/11 03:46:12;;;;;;;;;;;22.20;30.50;;;;;;4945795;28;20379;-64
2022/04/11 03:48:39;;;;;;;;;;;22.20;30.50;;;;;;4949394;28;19935;-64
2022/04/11 03:51:07;;;;;;;;;;;22.20;30.50;;;;;;4948740;28;20402;-64
2022/04/11 03:53:35;;;;;;;;;;;22.20;30.50;;;;;;4964082;28;20020;-62
2022/04/11 03:56:02;;;;;;;;;;;22.10;30.50;;;;;;4965546;28;20059;-63
2022/04/11 03:58:29;;;;;;;;;;;22.10;30.50;;;;;;4957008;28;19927;-64
2022/04/11 04:00:59;;;;;;;;;;;22.10;30.50;;;;;;4954245;28;20348;-63
2022/04/11 04:03:28;;;;;;;;;;;22.10;30.50;;;;;;4953825;28;19949;-64
2022/04/11 04:05:55;;;;;;;;;;;22.10;30.80;;;;;;4954832;28;19930;-64
2022/04/11 04:08:22;;;;;;;;;;;22.10;30.50;;;;;;4940858;28;20198;-64
2022/04/11 04:10:49;;;;;;;;;;;22.10;30.50;;;;;;4945497;28;20329;-63
2022/04/11 04:13:16;;;;;;;;;;;22.10;30.50;;;;;;4945002;28;20375;-63
2022/04/11 04:15:43;;;;;;;;;;;22.10;30.60;;;;;;4944858;28;19934;-63
2022/04/11 04:18:12;;;;;;;;;;;22.10;30.60;;;;;;4944316;28;20008;-63
2022/04/11 04:20:39;;;;;;;;;;;22.10;30.60;;;;;;4945446;28;20461;-64
2022/04/11 04:23:07;;;;;;;;;;;22.10;30.70;;;;;;4944257;28;19934;-63
2022/04/11 04:25:34;;;;;;;;;;;22.10;30.70;;;;;;4943917;28;19926;-63
2022/04/11 04:28:02;;;;;;;;;;;22.00;30.70;;;;;;4945643;28;20135;-63
2022/04/11 04:30:29;;;;;;;;;;;22.00;30.60;;;;;;4945169;28;19974;-64
2022/04/11 04:32:59;;;;;;;;;;;22.10;30.70;;;;;;4946218;29;20254;-63
2022/04/11 04:35:26;;;;;;;;;;;22.10;30.60;;;;;;4945627;29;20413;-63
2022/04/11 04:37:53;;;;;;;;;;;22.10;30.60;;;;;;4944724;28;19981;-63
2022/04/11 04:40:21;;;;;;;;;;;22.10;30.50;;;;;;4941690;28;19926;-64
2022/04/11 04:42:48;;;;;;;;;;;22.20;30.50;;;;;;4943290;28;19927;-63
2022/04/11 04:45:15;;;;;;;;;;;22.20;30.50;;;;;;4946093;29;20370;-63
2022/04/11 04:47:42;;;;;;;;;;;22.20;30.50;;;;;;4948955;28;19930;-64
2022/04/11 04:50:09;;;;;;;;;;;22.20;30.40;;;;;;4961755;28;20002;-64
2022/04/11 04:52:37;;;;;;;;;;;22.20;30.40;;;;;;4951150;28;20029;-64
2022/04/11 04:55:05;;;;;;;;;;;22.20;31.00;;;;;;4951375;28;19996;-63
2022/04/11 04:57:32;;;;;;;;;;;22.20;30.40;;;;;;4948618;28;19930;-64
2022/04/11 04:59:59;;;;;;;;;;;22.30;30.40;;;;;;4942517;28;19930;-64
2022/04/11 05:02:26;;;;;;;;;;;22.30;30.40;;;;;;4960356;28;20298;-64
2022/04/11 05:04:53;;;;;;;;;;;22.30;30.40;;;;;;4951479;28;20020;-63
2022/04/11 05:07:20;;;;;;;;;;;22.30;30.20;;;;;;4946610;28;19936;-64
2022/04/11 05:09:47;;;;;;;;;;;22.30;30.00;;;;;;4952630;28;20426;-64
2022/04/11 05:12:14;;;;;;;;;;;22.30;30.00;;;;;;4954524;28;19984;-64
2022/04/11 05:14:41;;;;;;;;;;;22.30;29.90;;;;;;4952966;28;19996;-64
2022/04/11 05:17:08;;;;;;;;;;;22.30;29.80;;;;;;4951488;28;20317;-64
2022/04/11 05:19:36;;;;;;;;;;;22.40;29.70;;;;;;4946119;28;20147;-63
2022/04/11 05:22:03;;;;;;;;;;;22.40;29.70;;;;;;4963057;28;20083;-63
2022/04/11 05:24:30;;;;;;;;;;;22.40;29.70;;;;;;4951116;28;19926;-63
2022/04/11 05:26:57;;;;;;;;;;;22.40;29.80;;;;;;4945686;28;20366;-63
2022/04/11 05:29:24;;;;;;;;;;;22.40;29.90;;;;;;4949887;28;20047;-62
2022/04/11 05:31:52;;;;;;;;;;;22.40;29.90;;;;;;4954208;28;19930;-64
2022/04/11 05:34:20;;;;;;;;;;;22.40;29.90;;;;;;4949056;28;19940;-63
2022/04/11 05:36:47;;;;;;;;;;;22.40;29.90;;;;;;4948431;28;19930;-64
2022/04/11 05:39:14;;;;;;;;;;;22.50;30.00;;;;;;4950005;28;20030;-63
2022/04/11 05:41:41;;;;;;;;;;;22.50;30.00;;;;;;4935783;28;19926;-65
2022/04/11 05:44:08;;;;;;;;;;;22.50;30.00;;;;;;4943247;28;19930;-64
2022/04/11 05:46:35;;;;;;;;;;;22.50;30.00;;;;;;4950603;28;19973;-62
2022/04/11 05:49:09;;;;;;;;;;;22.50;30.00;;;;;;4953130;28;19930;-62
2022/04/11 05:51:36;;;;;;;;;;;22.50;29.90;;;;;;4945988;28;20439;-63
2022/04/11 05:54:03;;;;;;;;;;;22.60;29.80;;;;;;4946698;28;20422;-64
2022/04/11 05:56:30;;;;;;;;;;;22.60;29.80;;;;;;4944417;28;20337;-67
2022/04/11 05:58:57;;;;;;;;;;;22.60;29.70;;;;;;4948253;28;19976;-63
2022/04/11 06:01:24;;;;;;;;;;;22.60;29.70;;;;;;4950890;28;19980;-63
2022/04/11 06:03:51;;;;;;;;;;;22.70;29.70;;;;;;4946686;28;19926;-63
2022/04/11 06:06:24;;;;;;;;;;;22.70;29.70;;;;;;4946095;28;20467;-63
2022/04/11 06:08:52;;;;;;;;;;;22.70;29.60;;;;;;4950058;28;19981;-64
2022/04/11 06:11:19;;;;;;;;;;;22.70;29.60;;;;;;4947387;28;19972;-65
2022/04/11 06:13:46;;;;;;;;;;;22.80;29.60;;;;;;4944704;28;19992;-62
2022/04/11 06:16:13;;;;;;;;;;;22.80;29.70;;;;;;4946467;28;19938;-63
2022/04/11 06:18:40;;;;;;;;;;;22.80;29.80;;;;;;4945226;28;19966;-64
2022/04/11 06:21:08;;;;;;;;;;;22.80;29.90;;;;;;4948245;28;20443;-64
2022/04/11 06:23:35;;;;;;;;;;;22.80;30.00;;;;;;4946676;28;19934;-63
2022/04/11 06:26:02;;;;;;;;;;;22.80;30.00;;;;;;4946857;28;19926;-63
2022/04/11 06:28:29;;;;;;;;;;;22.90;30.00;;;;;;4943470;28;19935;-62
2022/04/11 06:30:56;;;;;;;;;;;22.90;30.00;;;;;;4943326;28;19937;-63
2022/04/11 06:33:23;;;;;;;;;;;23.00;30.00;;;;;;4942827;28;19930;-64
2022/04/11 06:35:50;;;;;;;;;;;23.00;29.90;;;;;;4945050;28;19985;-64
2022/04/11 06:38:17;;;;;;;;;;;23.00;29.80;;;;;;4948089;28;19934;-62
2022/04/11 06:40:44;;;;;;;;;;;23.10;29.80;;;;;;4950139;28;19977;-64
2022/04/11 06:43:11;;;;;;;;;;;23.10;29.70;;;;;;4945060;28;19982;-63
2022/04/11 06:45:38;;;;;;;;;;;23.10;29.70;;;;;;4945290;28;19976;-65
2022/04/11 06:48:05;;;;;;;;;;;23.20;29.60;;;;;;4948369;28;19973;-64
2022/04/11 06:50:35;;;;;;;;;;;23.20;29.60;;;;;;4943706;28;19987;-64
2022/04/11 06:53:02;;;;;;;;;;;23.20;29.90;;;;;;4945499;28;20458;-63
2022/04/11 06:55:29;;;;;;;;;;;23.30;29.40;;;;;;4947798;28;19931;-65
2022/04/11 06:57:57;;;;;;;;;;;23.30;29.30;;;;;;4953328;28;20016;-65
2022/04/11 07:00:24;;;;;;;;;;;23.40;29.20;;;;;;4951019;28;19981;-63
2022/04/11 07:02:51;;;;;;;;;;;23.40;29.10;;;;;;4953798;28;19926;-64
2022/04/11 07:05:18;;;;;;;;;;;23.50;29.10;;;;;;4949846;28;19934;-64
2022/04/11 07:07:45;;;;;;;;;;;23.60;29.00;;;;;;4946769;28;19934;-64
2022/04/11 07:10:13;;;;;;;;;;;23.60;28.90;;;;;;4950128;28;19984;-64
2022/04/11 07:12:40;;;;;;;;;;;23.70;28.90;;;;;;4942798;28;20013;-64
2022/04/11 07:15:08;;;;;;;;;;;23.80;28.70;;;;;;4950809;28;19934;-64
2022/04/11 07:17:35;;;;;;;;;;;23.80;28.80;;;;;;4946141;28;20437;-63
2022/04/11 07:20:02;;;;;;;;;;;23.90;28.80;;;;;;4946293;28;19938;-64
2022/04/11 07:22:31;;;;;;;;;;;24.00;28.60;;;;;;4948533;28;20025;-63
2022/04/11 07:24:59;;;;;;;;;;;24.00;28.70;;;;;;4945046;28;20340;-61
2022/04/11 07:27:26;;;;;;;;;;;24.10;28.90;;;;;;4951155;28;20394;-64
2022/04/11 07:29:53;;;;;;;;;;;24.10;29.30;;;;;;4949179;28;20349;-63
2022/04/11 07:32:20;;;;;;;;;;;24.20;29.10;;;;;;4945190;28;19930;-62
2022/04/11 07:34:48;;;;;;;;;;;24.30;28.90;;;;;;4934318;28;21077;-65
2022/04/11 07:37:15;;;;;;;;;;;24.30;29.10;;;;;;4950178;28;19927;-63
2022/04/11 07:39:43;;;;;;;;;;;24.40;29.20;;;;;;4948654;28;19930;-64
2022/04/11 07:42:10;;;;;;;;;;;24.50;29.10;;;;;;4953521;28;19960;-64
2022/04/11 07:44:37;;;;;;;;;;;24.50;29.00;;;;;;4949767;28;19927;-64
2022/04/11 07:47:04;;;;;;;;;;;24.50;29.00;;;;;;4947173;28;20023;-65
2022/04/11 07:49:31;;;;;;;;;;;24.60;29.10;;;;;;4957073;28;19926;-63
2022/04/11 07:51:58;;;;;;;;;;;24.70;29.10;;;;;;4946890;28;19976;-64
2022/04/11 07:54:25;;;;;;;;;;;24.70;29.00;;;;;;4952830;28;19957;-63
2022/04/11 07:56:52;;;;;;;;;;;24.80;28.90;;;;;;4953085;28;19988;-63
2022/04/11 07:59:21;;;;;;;;;;;24.90;28.90;;;;;;4948894;28;20000;-64
2022/04/11 08:01:48;;;;;;;;;;;24.90;28.90;;;;;;4948846;28;20366;-64
2022/04/11 08:04:15;;;;;;;;;;;24.90;28.80;;;;;;4955847;28;19977;-64
2022/04/11 08:06:42;;;;;;;;;;;25.00;28.90;;;;;;4945884;28;21591;-62
2022/04/11 08:09:09;;;;;;;;;;;25.00;28.90;;;;;;4938001;28;19942;-62
2022/04/11 08:11:36;;;;;;;;;;;25.10;28.90;;;;;;4952618;28;19938;-64
2022/04/11 08:14:04;;;;;;;;;;;25.10;28.90;;;;;;4950362;28;20381;-63
2022/04/11 08:16:30;;;;;;;;;;;25.10;28.90;;;;;;4954543;28;20404;-64
2022/04/11 08:18:58;;;;;;;;;;;25.20;28.90;;;;;;4950507;28;20395;-62
2022/04/11 08:21:24;;;;;;;;;;;25.20;28.80;;;;;;4949337;28;19946;-65
2022/04/11 08:23:52;;;;;;;;;;;25.30;28.80;;;;;;4952399;28;20060;-64
2022/04/11 08:26:21;;;;;;;;;;;25.30;28.60;;;;;;4955185;28;20208;-64
2022/04/11 08:28:48;;;;;;;;;;;25.30;28.50;;;;;;4951229;28;20025;-64
2022/04/11 08:31:15;;;;;;;;;;;25.40;28.50;;;;;;4940600;28;19934;-63
2022/04/11 08:33:42;;;;;;;;;;;25.40;28.40;;;;;;4955847;28;20043;-63
2022/04/11 08:36:09;;;;;;;;;;;25.40;28.40;;;;;;4948091;28;21755;-65
2022/04/11 08:38:36;;;;;;;;;;;25.50;28.40;;;;;;4953403;28;20420;-64
2022/04/11 08:41:03;;;;;;;;;;;25.50;28.40;;;;;;4950468;28;19937;-64
2022/04/11 08:43:31;;;;;;;;;;;25.60;28.20;;;;;;4949705;28;19933;-64
2022/04/11 08:46:01;;;;;;;;;;;25.60;28.10;;;;;;4932399;28;19977;-61
2022/04/11 08:48:29;;;;;;;;;;;25.60;28.10;;;;;;4950505;28;19937;-66
2022/04/11 08:50:56;;;;;;;;;;;25.60;28.10;;;;;;4952952;28;19980;-68
2022/04/11 08:53:23;;;;;;;;;;;25.70;28.00;;;;;;4951804;28;19970;-64
2022/04/11 08:55:51;;;;;;;;;;;25.70;27.80;;;;;;4950728;28;21719;-65
2022/04/11 08:58:18;;;;;;;;;;;25.70;27.90;;;;;;4949193;28;19938;-66
2022/04/11 09:00:46;;;;;;;;;;;25.70;27.70;;;;;;4953336;28;19934;-64
2022/04/11 09:03:13;;;;;;;;;;;25.80;27.90;;;;;;4946577;28;19926;-64
2022/04/11 09:05:40;;;;;;;;;;;25.80;27.70;;;;;;4945719;28;19934;-62
2022/04/11 09:08:07;;;;;;;;;;;25.80;27.40;;;;;;4947622;28;19935;-64
2022/04/11 09:10:37;;;;;;;;;;;25.90;27.70;;;;;;4947602;28;19934;-66
2022/04/11 09:13:06;;;;;;;;;;;25.90;27.70;;;;;;4953378;28;20017;-66
2022/04/11 09:15:40;;;;;;;;;;;25.90;27.60;;;;;;4944640;28;19934;-64
2022/04/11 09:18:07;;;;;;;;;;;26.00;27.50;;;;;;4947412;28;19973;-65
2022/04/11 09:20:34;;;;;;;;;;;26.00;27.60;;;;;;4949748;28;20373;-63
2022/04/11 09:23:16;;;;;;;;;;;26.00;27.60;;;;;;4948357;28;19934;-63
2022/04/11 09:25:43;;;;;;;;;;;26.10;27.60;;;;;;4951876;28;19934;-64
2022/04/11 09:28:11;;;;;;;;;;;26.20;27.60;;;;;;4944864;28;19985;-64
2022/04/11 09:30:39;;;;;;;;;;;26.20;27.50;;;;;;4950597;28;20286;-62
2022/04/11 09:33:08;;;;;;;;;;;26.20;27.10;;;;;;4949901;28;19935;-64
2022/04/11 09:35:37;;;;;;;;;;;26.20;24.20;;;;;;4950346;28;20383;-63
2022/04/11 09:38:17;;;;;;;;;;;26.00;24.70;;;;;;4950655;28;19934;-65
2022/04/11 09:40:52;;;;;;;;;;;25.90;25.30;;;;;;4955777;28;19967;-64
2022/04/11 09:43:30;;;;;;;;;;;25.90;25.80;;;;;;4952998;28;19936;-65
2022/04/11 09:45:59;;;;;;;;;;;25.90;26.10;;;;;;4950359;28;19995;-65
2022/04/11 09:48:32;;;;;;;;;;;26.00;26.30;;;;;;4937312;28;19931;-64
2022/04/11 09:50:59;;;;;;;;;;;26.00;26.40;;;;;;4948885;28;19962;-64
2022/04/11 09:53:32;;;;;;;;;;;26.20;26.60;;;;;;4935484;28;19934;-65
2022/04/11 09:56:01;;;;;;;;;;;26.20;26.50;;;;;;4945603;28;19930;-64
2022/04/11 09:58:28;;;;;;;;;;;26.30;26.70;;;;;;4949402;28;19934;-64
2022/04/11 10:00:57;;;;;;;;;;;26.30;26.70;;;;;;4947068;28;19952;-65
2022/04/11 10:03:25;;;;;;;;;;;26.40;26.80;;;;;;4949152;28;19934;-64
2022/04/11 10:05:59;;;;;;;;;;;26.40;26.50;;;;;;4949051;28;19930;-65
2022/04/11 10:08:26;;;;;;;;;;;26.40;26.60;;;;;;4948544;28;19945;-65
2022/04/11 10:10:54;;;;;;;;;;;26.40;26.50;;;;;;4937797;28;19930;-65
2022/04/11 10:13:21;;;;;;;;;;;26.50;26.40;;;;;;4952133;28;20345;-65
2022/04/11 10:15:49;;;;;;;;;;;26.50;26.30;;;;;;4947663;28;20037;-65
2022/04/11 10:18:21;;;;;;;;;;;26.50;26.30;;;;;;4954914;28;20444;-64
2022/04/11 10:20:52;;;;;;;;;;;26.50;26.30;;;;;;4953640;28;19934;-63
2022/04/11 10:24:00;;;;;;;;;;;26.50;26.30;;;;;;4951562;28;19996;-63
2022/04/11 10:26:39;;;;;;;;;;;26.50;26.50;;;;;;4948305;28;19934;-65
2022/04/11 10:29:07;;;;;;;;;;;26.50;26.30;;;;;;4946320;28;19926;-65
2022/04/11 10:31:35;;;;;;;;;;;26.50;26.20;;;;;;4945471;28;19942;-65
2022/04/11 10:34:03;;;;;;;;;;;26.50;25.80;;;;;;4953615;28;20451;-64
2022/04/11 10:36:57;;;;;;;;;;;26.50;25.90;;;;;;4946573;28;20023;-64
2022/04/11 10:39:24;;;;;;;;;;;26.50;26.10;;;;;;4954070;28;20375;-65
2022/04/11 10:42:07;;;;;;;;;;;26.50;26.40;;;;;;4956415;28;19933;-63
2022/04/11 10:44:50;;;;;;;;;;;26.50;26.10;;;;;;4950438;28;20682;-65
2022/04/11 10:47:29;;;;;;;;;;;26.50;26.20;;;;;;4953964;28;19941;-64
2022/04/11 10:50:10;;;;;;;;;;;26.50;26.20;;;;;;4953038;28;19966;-64
2022/04/11 10:52:40;;;;;;;;;;;26.50;26.00;;;;;;4953602;28;19931;-65
2022/04/11 10:55:10;;;;;;;;;;;26.50;25.80;;;;;;4953205;28;19976;-64
2022/04/11 10:57:44;;;;;;;;;;;26.50;25.90;;;;;;4960807;28;19930;-63
2022/04/11 11:00:12;;;;;;;;;;;26.50;25.90;;;;;;4955143;28;19926;-64
2022/04/11 11:03:02;;;;;;;;;;;26.50;25.90;;;;;;4946753;28;19931;-64
2022/04/11 11:05:43;;;;;;;;;;;26.40;24.10;;;;;;4939150;28;19931;-64
2022/04/11 11:08:30;;;;;;;;;;;26.30;22.70;;;;;;4947740;28;19934;-64
2022/04/11 11:10:59;;;;;;;;;;;26.10;23.30;;;;;;4929079;28;19935;-63
2022/04/11 11:13:40;;;;;;;;;;;26.10;24.10;;;;;;4953346;28;20285;-64
2022/04/11 11:16:28;;;;;;;;;;;26.10;24.50;;;;;;4954872;28;19930;-63
2022/04/11 11:19:17;;;;;;;;;;;26.10;24.80;;;;;;4953442;28;19966;-63
2022/04/11 11:22:00;;;;;;;;;;;26.10;24.80;;;;;;4949075;28;20382;-65
2022/04/11 11:24:27;;;;;;;;;;;26.20;25.00;;;;;;4949396;28;19954;-64
2022/04/11 11:26:57;;;;;;;;;;;26.20;24.90;;;;;;4950535;28;20375;-64
2022/04/11 11:29:26;;;;;;;;;;;26.20;25.00;;;;;;4953647;28;20342;-64
2022/04/11 11:31:54;;;;;;;;;;;26.30;25.10;;;;;;4947910;28;19934;-63
2022/04/11 11:34:22;;;;;;;;;;;26.30;25.30;;;;;;4947342;28;20029;-64
2022/04/11 11:36:49;;;;;;;;;;;26.30;25.30;;;;;;4949701;28;19926;-64
2022/04/11 11:39:17;;;;;;;;;;;26.40;25.30;;;;;;4953686;28;19937;-64
2022/04/11 11:41:51;;;;;;;;;;;26.40;25.30;;;;;;4950287;28;19926;-65
2022/04/11 11:44:19;;;;;;;;;;;26.40;25.20;;;;;;4951963;28;19934;-65
2022/04/11 11:46:47;;;;;;;;;;;26.40;25.30;;;;;;4955121;28;19974;-67
2022/04/11 11:49:15;;;;;;;;;;;26.40;25.30;;;;;;4951556;28;19927;-66
2022/04/11 11:51:42;;;;;;;;;;;26.40;25.10;;;;;;4950686;28;20271;-66
2022/04/11 11:54:09;;;;;;;;;;;26.40;25.00;;;;;;4951413;28;19992;-66
2022/04/11 11:56:40;;;;;;;;;;;26.40;24.90;;;;;;4952409;28;20016;-63
2022/04/11 11:59:08;;;;;;;;;;;26.40;25.10;;;;;;4951418;28;19934;-65
2022/04/11 12:01:35;;;;;;;;;;;26.40;24.90;;;;;;4951823;28;19927;-66
2022/04/11 12:04:18;;;;;;;;;;;26.40;25.00;;;;;;4951479;28;19933;-65
2022/04/11 12:06:52;;;;;;;;;;;26.40;25.10;;;;;;4950707;28;19976;-64
2022/04/11 12:09:19;;;;;;;;;;;26.40;24.80;;;;;;4949540;28;20317;-63
2022/04/11 12:11:46;;;;;;;;;;;26.40;25.20;;;;;;4940445;28;19980;-63
2022/04/11 12:14:13;;;;;;;;;;;26.40;25.20;;;;;;4951174;28;19968;-62
2022/04/11 12:16:57;;;;;;;;;;;26.40;25.10;;;;;;4955896;28;19980;-63
2022/04/11 12:19:33;;;;;;;;;;;26.40;25.20;;;;;;4951871;28;20359;-65
2022/04/11 12:22:11;;;;;;;;;;;26.40;25.40;;;;;;4950346;28;19957;-64
2022/04/11 12:24:38;;;;;;;;;;;26.40;25.40;;;;;;4952970;28;19938;-65
2022/04/11 12:27:06;;;;;;;;;;;26.40;25.20;;;;;;4953929;28;19995;-65
2022/04/11 12:29:38;;;;;;;;;;;26.40;25.30;;;;;;4953922;28;19926;-66
2022/04/11 12:32:09;;;;;;;;;;;26.40;25.20;;;;;;4949525;28;20097;-63
2022/04/11 12:34:38;;;;;;;;;;;26.50;25.30;;;;;;4952766;28;19937;-63
2022/04/11 12:37:07;;;;;;;;;;;26.50;25.50;;;;;;4954724;28;19934;-61
2022/04/11 12:39:54;;;;;;;;;;;26.50;25.80;;;;;;4944632;28;19927;-62
2022/04/11 12:42:22;;;;;;;;;;;26.50;25.70;;;;;;4933400;28;20467;-61
2022/04/11 12:45:00;;;;;;;;;;;26.50;26.00;;;;;;4949234;28;19934;-63
2022/04/11 12:47:27;;;;;;;;;;;26.50;25.90;;;;;;4949140;28;19926;-63
2022/04/11 12:49:54;;;;;;;;;;;26.50;26.10;;;;;;4951859;28;20141;-65
2022/04/11 12:52:25;;;;;;;;;;;26.50;25.90;;;;;;4950450;28;20560;-61
2022/04/11 12:55:00;;;;;;;;;;;26.50;25.80;;;;;;4951797;28;19938;-61
2022/04/11 12:57:28;;;;;;;;;;;26.50;26.00;;;;;;4954992;28;19930;-59
2022/04/11 12:59:55;;;;;;;;;;;26.50;25.90;;;;;;4951097;28;20406;-61
2022/04/11 13:02:25;;;;;;;;;;;26.50;25.90;;;;;;4953440;28;19965;-60
2022/04/11 13:04:54;;;;;;;;;;;26.50;25.70;;;;;;4950871;28;20015;-61
2022/04/11 13:07:42;;;;;;;;;;;26.50;25.70;;;;;;4953616;28;19926;-59
2022/04/11 13:10:09;;;;;;;;;;;26.50;25.60;;;;;;4947151;28;19934;-60
2022/04/11 13:12:36;;;;;;;;;;;26.60;25.50;;;;;;4950854;28;20000;-62
2022/04/11 13:15:03;;;;;;;;;;;26.50;25.40;;;;;;4952324;28;19933;-62
2022/04/11 13:20:36;;;;;;;;;;;26.50;25.30;;;;;;4950730;28;20370;-61
2022/04/11 13:23:03;;;;;;;;;;;26.50;25.20;;;;;;4950392;28;19927;-62
2022/04/11 13:25:30;;;;;;;;;;;26.50;25.10;;;;;;4951002;28;19934;-61
2022/04/11 13:28:17;;;;;;;;;;;26.50;25.20;;;;;;4953260;28;20286;-64
2022/04/11 13:30:45;;;;;;;;;;;26.50;25.20;;;;;;4953367;28;19926;-62
2022/04/11 13:33:12;;;;;;;;;;;26.40;25.10;;;;;;4951104;28;19969;-62
2022/04/11 13:35:39;;;;;;;;;;;26.50;25.20;;;;;;4953044;28;19926;-61
2022/04/11 13:38:09;;;;;;;;;;;26.40;25.30;;;;;;4945680;28;19969;-62
2022/04/11 13:40:36;;;;;;;;;;;26.40;25.30;;;;;;4951645;28;20282;-61
2022/04/11 13:43:04;;;;;;;;;;;26.40;25.20;;;;;;4957293;28;19930;-60
2022/04/11 13:45:41;;;;;;;;;;;26.40;25.30;;;;;;4949325;28;19979;-61
2022/04/11 13:48:09;;;;;;;;;;;26.40;25.40;;;;;;4933856;28;20392;-60
2022/04/11 13:50:37;;;;;;;;;;;26.40;25.50;;;;;;4949304;28;20650;-60
2022/04/11 13:53:05;;;;;;;;;;;26.40;25.50;;;;;;4950335;28;20373;-60
2022/04/11 13:55:32;;;;;;;;;;;26.40;25.40;;;;;;4951009;28;19926;-62
2022/04/11 13:58:00;;;;;;;;;;;26.40;25.50;;;;;;4947374;28;19938;-61
2022/04/11 14:00:27;;;;;;;;;;;26.40;25.10;;;;;;4949356;28;19934;-60
2022/04/11 14:02:55;;;;;;;;;;;26.50;25.00;;;;;;4951282;28;19934;-61
2022/04/11 14:05:23;;;;;;;;;;;26.50;25.20;;;;;;4953688;28;19966;-61
2022/04/11 14:07:50;;;;;;;;;;;26.50;25.40;;;;;;4951313;28;19926;-61
2022/04/11 14:10:18;;;;;;;;;;;26.50;25.20;;;;;;4948965;28;20340;-62
2022/04/11 14:12:45;;;;;;;;;;;26.50;25.10;;;;;;4949411;28;19927;-62
2022/04/11 14:15:12;;;;;;;;;;;26.40;25.10;;;;;;4950997;28;19926;-61
2022/04/11 14:17:40;;;;;;;;;;;26.50;24.90;;;;;;4952607;28;20050;-62
2022/04/11 14:20:08;;;;;;;;;;;26.40;25.10;;;;;;4950024;28;21657;-62
2022/04/11 14:22:36;;;;;;;;;;;26.50;25.20;;;;;;4950660;28;19933;-61
2022/04/11 14:25:03;;;;;;;;;;;26.50;25.00;;;;;;4950450;28;20794;-62
2022/04/11 14:27:50;;;;;;;;;;;26.40;24.70;;;;;;4937422;28;20095;-61